Time;durP1;ratioP1;P1;durP2;ratioP2;P2;SDS_P1;SDS_P2;PMS_P1;PMS_P2;Temp;Humidity;BMP_temperature;BMP_pressure;BME280_temperature;BME280_humidity;BME280_pressure;Samples;Min_cycle;Max_cycle;Signal;HPM_P1;HPM_P2
2021/01/28 00:01:32;;;;;;;7.57;5.07;;;1.70;99.90;;;;;;6244146;23;20251;-83
2021/01/28 00:04:09;;;;;;;9.73;5.13;;;1.70;99.90;;;;;;6236113;23;20030;-83
2021/01/28 00:06:35;;;;;;;9.27;6.03;;;1.70;99.90;;;;;;6224796;23;20489;-83
2021/01/28 00:09:00;;;;;;;6.93;4.68;;;1.70;99.90;;;;;;6250018;23;20004;-83
2021/01/28 00:11:26;;;;;;;9.10;5.45;;;1.80;99.90;;;;;;6223431;23;19996;-83
2021/01/28 00:13:55;;;;;;;10.45;6.35;;;1.80;99.90;;;;;;6224393;23;20000;-83
2021/01/28 00:16:20;;;;;;;9.15;6.38;;;1.80;99.90;;;;;;6250563;23;20002;-83
2021/01/28 00:18:57;;;;;;;7.57;5.95;;;1.80;99.90;;;;;;6231923;23;20004;-83
2021/01/28 00:21:23;;;;;;;9.23;6.10;;;1.80;99.90;;;;;;6228163;23;20020;-82
2021/01/28 00:23:49;;;;;;;9.98;6.30;;;1.80;99.90;;;;;;6225521;23;20064;-82
2021/01/28 00:26:17;;;;;;;9.13;5.90;;;1.70;99.90;;;;;;6258541;23;20003;-83
2021/01/28 00:28:43;;;;;;;9.05;6.57;;;1.80;99.90;;;;;;6261658;23;20011;-82
2021/01/28 00:31:08;;;;;;;12.90;6.28;;;1.80;99.90;;;;;;6241762;23;20059;-82
2021/01/28 00:33:34;;;;;;;11.40;6.85;;;1.80;99.90;;;;;;6267551;23;19992;-84
2021/01/28 00:36:00;;;;;;;8.68;6.45;;;1.70;99.90;;;;;;6270936;23;20014;-84
2021/01/28 00:38:28;;;;;;;11.02;7.07;;;1.80;99.90;;;;;;6224354;23;20058;-83
2021/01/28 00:40:56;;;;;;;21.40;7.10;;;1.80;99.90;;;;;;6249949;23;20007;-84
2021/01/28 00:43:22;;;;;;;12.10;7.25;;;1.80;99.90;;;;;;6228620;23;20004;-84
2021/01/28 00:45:49;;;;;;;9.00;6.28;;;1.80;99.90;;;;;;6231770;23;20000;-83
2021/01/28 00:48:16;;;;;;;8.95;6.13;;;1.80;99.90;;;;;;6222704;23;20058;-83
2021/01/28 00:50:43;;;;;;;8.38;5.78;;;1.80;99.90;;;;;;6249752;23;20000;-84
2021/01/28 00:53:14;;;;;;;6.82;5.05;;;1.80;99.90;;;;;;6222489;23;20004;-83
2021/01/28 00:55:40;;;;;;;9.07;6.18;;;1.80;99.90;;;;;;6226920;23;20000;-84
2021/01/28 00:58:06;;;;;;;8.10;6.00;;;1.80;99.90;;;;;;6253931;23;19996;-84
2021/01/28 01:00:41;;;;;;;5.90;4.50;;;1.80;99.90;;;;;;6227125;23;20030;-83
2021/01/28 01:03:13;;;;;;;7.05;5.47;;;1.90;99.90;;;;;;6227127;23;20012;-83
2021/01/28 01:05:39;;;;;;;5.82;4.72;;;1.90;99.90;;;;;;6236938;23;20010;-84
2021/01/28 01:08:14;;;;;;;6.25;4.60;;;1.90;99.90;;;;;;6270198;23;19992;-83
2021/01/28 01:10:42;;;;;;;7.97;6.18;;;1.90;99.90;;;;;;6243867;23;20004;-82
2021/01/28 01:13:10;;;;;;;6.13;4.90;;;1.90;99.90;;;;;;6244699;23;20004;-83
2021/01/28 01:15:36;;;;;;;6.53;4.90;;;1.90;99.90;;;;;;6271703;23;19984;-84
2021/01/28 01:18:04;;;;;;;8.23;5.97;;;2.00;99.90;;;;;;6245714;23;20024;-83
2021/01/28 01:20:30;;;;;;;8.93;5.82;;;2.00;99.90;;;;;;6271503;23;19996;-82
2021/01/28 01:22:56;;;;;;;10.00;6.35;;;1.90;99.90;;;;;;6271967;23;19992;-84
2021/01/28 01:27:57;;;;;;;8.00;5.45;;;1.90;99.90;;;;;;6245818;22;20016;-83
2021/01/28 01:30:23;;;;;;;7.60;4.93;;;2.00;99.90;;;;;;6251228;23;20075;-83
2021/01/28 01:32:50;;;;;;;6.78;5.05;;;1.90;99.90;;;;;;6224911;23;20001;-82
2021/01/28 01:35:18;;;;;;;5.65;4.47;;;2.00;99.90;;;;;;6224938;23;20316;-82
2021/01/28 01:37:44;;;;;;;8.32;5.47;;;2.00;99.90;;;;;;6224562;23;20020;-83
2021/01/28 01:40:13;;;;;;;6.40;4.55;;;2.00;99.90;;;;;;6252162;23;20054;-83
2021/01/28 01:42:45;;;;;;;8.63;5.28;;;2.00;99.90;;;;;;6225299;23;20004;-83
2021/01/28 01:45:12;;;;;;;5.45;3.78;;;2.00;99.90;;;;;;6225526;23;20015;-83
2021/01/28 01:47:50;;;;;;;3.97;3.42;;;2.10;99.90;;;;;;6225372;23;20000;-83
2021/01/28 01:50:34;;;;;;;6.82;4.25;;;2.10;99.90;;;;;;6225036;23;20011;-85
2021/01/28 01:53:01;;;;;;;5.38;3.92;;;2.10;99.90;;;;;;6224846;23;20012;-83
2021/01/28 01:55:29;;;;;;;4.28;3.50;;;2.10;99.90;;;;;;6225780;23;20012;-85
2021/01/28 01:57:57;;;;;;;3.38;2.85;;;2.10;99.90;;;;;;6229670;23;20000;-84
2021/01/28 02:00:23;;;;;;;5.13;3.75;;;2.20;99.90;;;;;;6226032;23;20015;-84
2021/01/28 02:02:55;;;;;;;4.53;3.75;;;2.20;99.90;;;;;;6225852;23;20004;-82
2021/01/28 02:05:56;;;;;;;4.03;3.30;;;2.20;99.90;;;;;;6225734;23;20015;-85
2021/01/28 02:08:22;;;;;;;4.50;3.80;;;2.20;99.90;;;;;;6238810;23;20004;-83
2021/01/28 02:10:48;;;;;;;4.45;3.63;;;2.10;99.90;;;;;;6229680;23;20110;-84
2021/01/28 02:13:13;;;;;;;5.13;4.05;;;2.10;99.90;;;;;;6254071;23;19996;-84
2021/01/28 02:15:40;;;;;;;6.50;3.63;;;2.20;99.90;;;;;;6227991;23;19996;-85
2021/01/28 02:18:06;;;;;;;4.22;3.58;;;2.20;99.90;;;;;;6226801;23;20004;-84
2021/01/28 02:20:34;;;;;;;5.30;3.63;;;2.20;99.90;;;;;;6234901;23;20030;-84
2021/01/28 02:23:48;;;;;;;5.15;3.88;;;2.20;99.90;;;;;;6235390;23;20007;-83
2021/01/28 02:26:14;;;;;;;4.30;3.38;;;2.10;99.90;;;;;;6262816;23;20000;-82
2021/01/28 02:28:40;;;;;;;6.13;3.97;;;2.10;99.90;;;;;;6259489;23;20359;-85
2021/01/28 02:31:07;;;;;;;6.43;3.67;;;2.10;99.90;;;;;;6255862;23;20000;-84
2021/01/28 02:33:34;;;;;;;4.95;3.50;;;2.10;99.90;;;;;;6260576;23;20027;-82
2021/01/28 02:36:00;;;;;;;4.13;3.47;;;2.10;99.90;;;;;;6228797;23;20060;-84
2021/01/28 02:38:26;;;;;;;6.78;4.90;;;2.10;99.90;;;;;;6225383;23;20001;-85
2021/01/28 02:40:51;;;;;;;4.65;3.88;;;2.10;99.90;;;;;;6255402;23;20008;-84
2021/01/28 02:43:17;;;;;;;3.83;3.42;;;2.00;99.90;;;;;;6232462;23;20371;-83
2021/01/28 02:45:43;;;;;;;4.07;3.47;;;2.10;99.90;;;;;;6256287;23;19996;-84
2021/01/28 02:48:11;;;;;;;4.72;3.55;;;2.10;99.90;;;;;;6267144;23;19996;-83
2021/01/28 02:50:38;;;;;;;3.92;3.33;;;2.10;99.90;;;;;;6251815;23;20004;-83
2021/01/28 02:53:05;;;;;;;3.92;3.45;;;2.00;99.90;;;;;;6224702;23;20003;-81
2021/01/28 02:55:33;;;;;;;3.35;2.90;;;2.10;99.90;;;;;;6252317;23;19996;-82
2021/01/28 02:57:59;;;;;;;2.75;2.45;;;2.10;99.90;;;;;;6252371;23;20016;-84
2021/01/28 03:00:36;;;;;;;4.05;3.30;;;2.10;99.90;;;;;;6252895;23;20034;-84
2021/01/28 03:03:07;;;;;;;3.45;2.90;;;2.10;99.90;;;;;;6251463;23;20015;-82
2021/01/28 03:05:33;;;;;;;3.00;2.37;;;2.20;99.90;;;;;;6251806;23;20080;-83
2021/01/28 03:07:59;;;;;;;3.28;2.70;;;2.20;99.90;;;;;;6224741;23;20231;-84
2021/01/28 03:10:25;;;;;;;2.50;2.30;;;2.20;99.90;;;;;;6224607;23;20007;-84
2021/01/28 03:12:51;;;;;;;2.88;2.20;;;2.30;99.90;;;;;;6225192;23;20016;-84
2021/01/28 03:15:22;;;;;;;2.67;2.47;;;2.20;99.90;;;;;;6253346;23;20011;-84
2021/01/28 03:17:49;;;;;;;4.03;3.37;;;2.20;99.90;;;;;;6224677;23;20051;-86
2021/01/28 03:20:15;;;;;;;2.75;2.53;;;2.30;99.90;;;;;;6251694;23;20008;-85
2021/01/28 03:22:40;;;;;;;2.72;2.42;;;2.20;99.90;;;;;;6223524;23;20005;-85
2021/01/28 03:25:09;;;;;;;2.47;2.28;;;2.20;99.90;;;;;;6250901;23;20008;-84
2021/01/28 03:27:34;;;;;;;2.15;1.80;;;2.20;99.90;;;;;;6225973;23;20012;-84
2021/01/28 03:30:00;;;;;;;2.58;2.05;;;2.30;99.90;;;;;;6226443;23;20022;-84
2021/01/28 03:32:26;;;;;;;2.92;2.58;;;2.30;99.90;;;;;;6225660;23;20008;-84
2021/01/28 03:34:51;;;;;;;2.33;2.10;;;2.20;99.90;;;;;;6260269;23;20003;-84
2021/01/28 03:37:17;;;;;;;1.90;1.80;;;2.30;99.90;;;;;;6258633;23;19996;-83
2021/01/28 03:39:43;;;;;;;2.40;2.03;;;2.30;99.90;;;;;;6258761;23;20004;-84
2021/01/28 03:42:08;;;;;;;2.00;1.90;;;2.30;99.90;;;;;;6229990;23;20096;-84
2021/01/28 03:44:34;;;;;;;2.75;2.40;;;2.30;99.90;;;;;;6258414;23;20165;-84
2021/01/28 03:47:00;;;;;;;2.00;1.80;;;2.30;99.90;;;;;;6262692;23;20018;-84
2021/01/28 03:49:26;;;;;;;2.90;2.10;;;2.40;99.90;;;;;;6264115;23;20012;-83
2021/01/28 03:51:52;;;;;;;2.10;1.90;;;2.30;99.90;;;;;;6235046;23;20004;-85
2021/01/28 03:54:17;;;;;;;2.30;2.05;;;2.40;99.90;;;;;;6235658;23;20124;-83
2021/01/28 03:56:43;;;;;;;2.80;1.65;;;2.40;99.90;;;;;;6262004;23;20083;-82
2021/01/28 03:59:14;;;;;;;1.73;1.33;;;2.40;99.90;;;;;;6263021;23;20275;-83
2021/01/28 04:01:39;;;;;;;1.67;1.50;;;2.40;99.90;;;;;;6235210;23;20006;-83
2021/01/28 04:04:05;;;;;;;2.25;1.90;;;2.40;99.90;;;;;;6231636;23;20428;-82
2021/01/28 04:06:31;;;;;;;2.58;1.92;;;2.40;99.90;;;;;;6258433;23;20004;-83
2021/01/28 04:08:56;;;;;;;3.47;1.58;;;2.40;99.90;;;;;;6225318;23;20007;-83
2021/01/28 04:11:22;;;;;;;1.95;1.63;;;2.40;99.90;;;;;;6223889;23;20036;-84
2021/01/28 04:13:48;;;;;;;2.65;2.00;;;2.50;99.90;;;;;;6250032;23;20412;-85
2021/01/28 04:16:13;;;;;;;3.10;2.17;;;2.50;99.90;;;;;;6223555;23;20023;-83
2021/01/28 04:18:39;;;;;;;1.67;1.58;;;2.50;99.90;;;;;;6223932;23;20012;-82
2021/01/28 04:21:04;;;;;;;2.22;1.55;;;2.50;99.90;;;;;;6223022;23;20004;-83
2021/01/28 04:23:30;;;;;;;1.65;1.45;;;2.50;99.90;;;;;;6223500;23;20004;-84
2021/01/28 04:25:56;;;;;;;2.00;1.85;;;2.50;99.90;;;;;;6250902;23;19997;-83
2021/01/28 04:28:21;;;;;;;1.95;1.70;;;2.50;99.90;;;;;;6252290;23;20071;-85
2021/01/28 04:30:47;;;;;;;2.13;1.90;;;2.50;99.90;;;;;;6220888;23;20035;-85
2021/01/28 04:33:13;;;;;;;1.50;1.40;;;2.50;99.90;;;;;;6220418;23;20001;-84
2021/01/28 04:35:38;;;;;;;1.83;1.67;;;2.50;99.90;;;;;;6222941;23;20001;-85
2021/01/28 04:38:04;;;;;;;1.80;1.70;;;2.50;99.90;;;;;;6237422;23;19996;-87
2021/01/28 04:40:48;;;;;;;2.38;1.60;;;2.50;99.90;;;;;;6208059;23;20012;-83
2021/01/28 04:43:29;;;;;;;2.05;1.85;;;2.40;99.90;;;;;;6196819;23;20432;-79
2021/01/28 04:45:58;;;;;;;1.90;1.67;;;2.50;99.90;;;;;;6219438;23;20088;-82
2021/01/28 04:48:25;;;;;;;2.28;1.70;;;2.50;99.90;;;;;;6189801;23;20007;-82
2021/01/28 04:50:51;;;;;;;2.33;1.67;;;2.40;99.90;;;;;;6219766;23;20009;-84
2021/01/28 04:53:31;;;;;;;2.28;1.90;;;2.40;99.90;;;;;;6220687;23;20433;-84
2021/01/28 04:56:00;;;;;;;1.95;1.75;;;2.40;99.90;;;;;;6194265;23;20328;-83
2021/01/28 04:58:26;;;;;;;2.42;1.90;;;2.40;99.90;;;;;;6194884;23;20433;-83
2021/01/28 05:00:52;;;;;;;2.00;1.77;;;2.50;99.90;;;;;;6221191;23;19997;-82
2021/01/28 05:03:50;;;;;;;2.20;2.00;;;2.50;99.90;;;;;;6194221;23;20024;-83
2021/01/28 05:06:16;;;;;;;2.72;2.00;;;2.50;99.90;;;;;;6177652;23;20084;-85
2021/01/28 05:08:41;;;;;;;2.60;2.35;;;2.50;99.90;;;;;;6195903;23;20427;-84
2021/01/28 05:11:32;;;;;;;2.63;2.40;;;2.50;99.90;;;;;;6222072;23;19996;-84
2021/01/28 05:14:18;;;;;;;1.95;1.70;;;2.40;99.90;;;;;;6222364;23;19996;-83
2021/01/28 05:16:50;;;;;;;1.88;1.67;;;2.40;99.90;;;;;;6195206;23;20001;-84
2021/01/28 05:19:49;;;;;;;1.70;1.60;;;2.40;99.90;;;;;;6220175;23;20080;-83
2021/01/28 05:22:26;;;;;;;1.38;1.27;;;2.50;99.90;;;;;;6177740;23;20004;-80
2021/01/28 05:24:58;;;;;;;4.07;2.10;;;2.50;99.90;;;;;;6195087;23;20004;-83
2021/01/28 05:27:23;;;;;;;2.78;1.45;;;2.50;99.90;;;;;;6195311;23;20012;-83
2021/01/28 05:29:51;;;;;;;1.65;1.50;;;2.50;99.90;;;;;;6222296;23;20009;-79
2021/01/28 05:32:49;;;;;;;1.63;1.45;;;2.60;99.90;;;;;;6194752;23;20067;-86
2021/01/28 05:35:29;;;;;;;2.28;1.50;;;2.60;99.90;;;;;;6194104;23;20082;-80
2021/01/28 05:38:11;;;;;;;1.17;1.17;;;2.60;99.90;;;;;;6194503;23;20001;-83
2021/01/28 05:40:39;;;;;;;1.88;1.65;;;2.60;99.90;;;;;;6204277;23;20009;-81
2021/01/28 05:43:23;;;;;;;1.35;1.17;;;2.70;99.90;;;;;;6219103;23;20079;-78
2021/01/28 05:45:49;;;;;;;2.28;2.08;;;2.60;99.90;;;;;;6193345;23;20001;-83
2021/01/28 05:48:28;;;;;;;24.98;17.83;;;2.70;99.90;;;;;;6195162;23;20027;-82
2021/01/28 05:51:16;;;;;;;4.15;3.75;;;2.70;99.90;;;;;;6195176;23;20059;-83
2021/01/28 05:54:07;;;;;;;2.35;1.98;;;2.70;99.90;;;;;;6226145;23;20001;-82
2021/01/28 05:56:43;;;;;;;3.15;2.53;;;2.80;99.90;;;;;;6198568;23;20012;-81
2021/01/28 05:59:20;;;;;;;3.15;2.85;;;2.80;99.90;;;;;;6223870;23;20060;-81
2021/01/28 06:02:21;;;;;;;2.10;1.90;;;2.80;99.90;;;;;;6193779;23;20087;-82
2021/01/28 06:05:06;;;;;;;4.30;1.60;;;2.90;99.90;;;;;;6228105;23;20005;-80
2021/01/28 06:07:56;;;;;;;2.45;1.58;;;2.90;99.90;;;;;;6209011;23;20011;-82
2021/01/28 06:10:30;;;;;;;4.18;2.10;;;2.90;99.90;;;;;;6234834;23;20008;-84
2021/01/28 06:12:55;;;;;;;2.80;2.28;;;2.90;99.90;;;;;;6196695;23;20008;-78
2021/01/28 06:15:32;;;;;;;2.15;1.83;;;2.80;99.90;;;;;;6190198;23;20000;-78
2021/01/28 06:18:22;;;;;;;4.38;2.90;;;2.80;99.90;;;;;;6217951;23;20000;-78
2021/01/28 06:21:01;;;;;;;3.70;1.88;;;2.80;99.90;;;;;;6214659;23;20348;-82
2021/01/28 06:23:36;;;;;;;3.33;2.15;;;2.80;99.90;;;;;;6220452;23;20063;-82
2021/01/28 06:26:29;;;;;;;2.35;1.80;;;2.80;99.90;;;;;;6221582;23;20032;-81
2021/01/28 06:29:30;;;;;;;2.85;2.00;;;2.80;99.90;;;;;;6221190;23;20007;-81
2021/01/28 06:32:16;;;;;;;4.18;2.20;;;2.80;99.90;;;;;;6193710;23;20322;-82
2021/01/28 06:34:45;;;;;;;3.60;1.80;;;2.90;99.90;;;;;;6194990;23;20000;-82
2021/01/28 06:37:32;;;;;;;2.10;1.83;;;2.90;99.90;;;;;;6225082;23;20055;-83
2021/01/28 06:39:58;;;;;;;2.50;2.00;;;2.90;99.90;;;;;;6206683;23;20005;-82
2021/01/28 06:42:49;;;;;;;2.95;2.22;;;2.90;99.90;;;;;;6232142;23;20080;-82
2021/01/28 06:45:19;;;;;;;2.80;1.77;;;2.90;99.90;;;;;;6195098;23;20004;-83
2021/01/28 06:48:00;;;;;;;2.50;1.80;;;2.90;99.90;;;;;;6195267;23;20092;-83
2021/01/28 06:50:41;;;;;;;5.00;2.03;;;2.90;99.90;;;;;;6195276;23;20013;-83
2021/01/28 06:53:24;;;;;;;3.78;2.05;;;3.00;99.90;;;;;;6194132;23;20023;-83
2021/01/28 06:56:00;;;;;;;3.45;1.88;;;3.00;99.90;;;;;;6194441;23;20015;-82
2021/01/28 06:58:53;;;;;;;5.18;3.67;;;3.00;99.90;;;;;;6221542;23;20420;-82
2021/01/28 07:01:44;;;;;;;2.72;1.55;;;3.00;99.90;;;;;;6221701;23;19997;-82
2021/01/28 07:04:37;;;;;;;3.28;2.30;;;3.00;99.90;;;;;;6194866;23;20024;-82
2021/01/28 07:07:11;;;;;;;3.40;2.38;;;3.00;99.90;;;;;;6195959;23;20432;-83
2021/01/28 07:10:00;;;;;;;2.22;1.65;;;3.00;99.90;;;;;;6225194;23;20001;-83
2021/01/28 07:12:58;;;;;;;1.95;1.80;;;3.00;99.90;;;;;;6195529;23;20000;-84
2021/01/28 07:15:26;;;;;;;1.67;1.40;;;3.10;99.90;;;;;;6171957;23;20294;-82
2021/01/28 07:18:06;;;;;;;4.45;1.85;;;3.00;99.90;;;;;;6194879;23;20000;-82
2021/01/28 07:20:41;;;;;;;1.77;1.30;;;3.10;99.90;;;;;;6221382;23;20031;-81
2021/01/28 07:23:25;;;;;;;1.83;1.17;;;3.10;99.90;;;;;;6221561;23;20063;-82
2021/01/28 07:25:53;;;;;;;4.68;1.52;;;3.10;99.90;;;;;;6220977;23;20015;-82
2021/01/28 10:29:34;;;;;;;3.15;1.40;;;4.20;99.90;;;;;;6212775;23;20016;-86
2021/01/28 10:32:00;;;;;;;3.03;1.55;;;4.30;99.90;;;;;;6227917;23;20035;-86
2021/01/28 10:34:26;;;;;;;1.70;1.35;;;4.30;99.90;;;;;;6228568;23;20005;-86
2021/01/28 10:36:52;;;;;;;3.35;1.33;;;4.30;99.90;;;;;;6228646;23;19993;-86
2021/01/28 10:39:17;;;;;;;1.75;1.45;;;4.30;99.90;;;;;;6228977;23;20001;-86
2021/01/28 10:41:48;;;;;;;3.47;1.30;;;4.20;99.90;;;;;;6229250;23;20023;-86
2021/01/28 10:44:13;;;;;;;1.95;1.35;;;4.30;99.90;;;;;;6226005;23;20064;-86
2021/01/28 10:46:41;;;;;;;3.95;1.60;;;4.30;99.90;;;;;;6228386;23;20074;-88
2021/01/28 10:49:06;;;;;;;2.92;1.77;;;4.30;99.90;;;;;;6198265;23;20020;-86
2021/01/28 10:51:32;;;;;;;2.22;1.20;;;4.30;99.90;;;;;;6223194;23;20054;-86
2021/01/28 10:53:58;;;;;;;1.10;0.80;;;4.30;99.90;;;;;;6225414;23;20007;-88
2021/01/28 10:56:23;;;;;;;1.77;1.35;;;4.20;99.90;;;;;;6224946;23;20001;-87
2021/01/28 10:58:49;;;;;;;5.43;2.10;;;4.20;99.90;;;;;;6224977;23;20001;-87
2021/01/28 11:01:15;;;;;;;3.97;1.65;;;4.20;99.90;;;;;;6200172;23;20020;-87
2021/01/28 11:03:40;;;;;;;2.53;1.20;;;4.30;99.90;;;;;;6225638;23;20412;-87
2021/01/28 11:06:06;;;;;;;1.67;1.25;;;4.30;99.90;;;;;;6228286;23;20248;-86
2021/01/28 11:08:32;;;;;;;3.22;1.70;;;4.30;99.90;;;;;;6227728;23;20026;-86
2021/01/28 11:10:58;;;;;;;4.05;1.38;;;4.30;99.90;;;;;;6227713;23;20072;-86
2021/01/28 11:13:24;;;;;;;6.25;4.10;;;4.30;99.90;;;;;;6222571;23;20001;-86
2021/01/28 11:15:49;;;;;;;4.32;2.60;;;4.30;99.90;;;;;;6225543;23;20004;-86
2021/01/28 11:18:15;;;;;;;2.50;1.45;;;4.40;99.90;;;;;;6227126;23;20069;-86
2021/01/28 11:20:41;;;;;;;1.27;0.70;;;4.40;99.90;;;;;;6200599;23;20008;-86
2021/01/28 11:23:06;;;;;;;1.23;0.80;;;4.40;99.90;;;;;;6225495;23;20332;-87
2021/01/28 11:25:33;;;;;;;1.77;0.68;;;4.40;99.90;;;;;;6223831;23;20148;-86
2021/01/28 11:27:59;;;;;;;1.92;1.02;;;4.40;99.90;;;;;;6222746;23;20032;-86
2021/01/28 11:30:28;;;;;;;2.88;0.70;;;4.40;99.90;;;;;;6199798;23;20043;-86
2021/01/28 11:32:54;;;;;;;2.63;2.42;;;4.50;99.90;;;;;;6198147;23;20005;-88
2021/01/28 11:35:22;;;;;;;1.02;0.80;;;4.50;99.90;;;;;;6228167;23;20108;-84
2021/01/28 11:37:49;;;;;;;2.28;0.95;;;4.50;99.90;;;;;;6229115;23;20008;-84
2021/01/28 11:40:20;;;;;;;1.90;0.85;;;4.40;99.90;;;;;;6229816;23;20067;-83
2021/01/28 11:42:46;;;;;;;0.80;0.60;;;4.40;99.90;;;;;;6230960;23;20059;-84
2021/01/28 11:45:14;;;;;;;1.48;0.80;;;4.50;99.90;;;;;;6230823;23;20000;-85
2021/01/28 11:47:40;;;;;;;1.40;0.60;;;4.50;99.90;;;;;;6231633;23;19997;-84
2021/01/28 11:50:07;;;;;;;1.58;0.77;;;4.40;99.90;;;;;;6231783;23;20342;-84
2021/01/28 11:52:33;;;;;;;1.17;0.82;;;4.50;99.90;;;;;;6204067;23;20009;-83
2021/01/28 11:54:59;;;;;;;2.00;1.00;;;4.50;99.90;;;;;;6233612;23;20003;-84
2021/01/28 11:57:25;;;;;;;1.02;0.85;;;4.50;99.90;;;;;;6231043;23;19996;-84
2021/01/28 11:59:50;;;;;;;1.45;0.55;;;4.60;99.90;;;;;;6231415;23;20055;-83
2021/01/28 12:02:16;;;;;;;2.50;0.95;;;4.60;99.90;;;;;;6230750;23;20059;-84
2021/01/28 12:04:42;;;;;;;1.48;0.93;;;4.60;99.90;;;;;;6230298;23;20004;-84
2021/01/28 12:07:08;;;;;;;3.13;0.88;;;4.60;99.90;;;;;;6230883;23;20005;-84
2021/01/28 12:09:34;;;;;;;1.73;0.73;;;4.70;99.90;;;;;;6229590;23;20004;-84
2021/01/28 12:12:00;;;;;;;4.25;1.00;;;4.80;99.90;;;;;;6230053;23;19993;-83
2021/01/28 12:14:25;;;;;;;1.73;0.70;;;4.80;99.90;;;;;;6230260;23;20004;-84
2021/01/28 12:16:51;;;;;;;0.98;0.55;;;4.80;99.90;;;;;;6230675;23;20033;-84
2021/01/28 12:19:17;;;;;;;1.50;0.77;;;4.90;99.90;;;;;;6229508;23;20000;-84
2021/01/28 12:21:47;;;;;;;3.88;1.20;;;4.90;99.90;;;;;;6229657;23;20506;-84
2021/01/28 12:24:12;;;;;;;1.42;0.63;;;5.00;99.90;;;;;;6200788;23;20434;-87
2021/01/28 12:26:38;;;;;;;2.17;1.10;;;5.00;99.90;;;;;;6229826;23;20019;-85
2021/01/28 12:29:04;;;;;;;1.67;0.40;;;5.00;99.90;;;;;;6227759;23;20005;-85
2021/01/28 12:31:30;;;;;;;2.65;0.80;;;5.00;99.90;;;;;;6202414;23;20424;-85
2021/01/28 12:33:55;;;;;;;0.60;0.60;;;5.00;99.90;;;;;;6228441;23;20031;-86
2021/01/28 12:36:21;;;;;;;1.88;0.93;;;5.00;99.90;;;;;;6227404;23;20008;-85
2021/01/28 12:38:47;;;;;;;1.85;0.98;;;5.10;99.90;;;;;;6200029;23;20001;-87
2021/01/28 12:41:13;;;;;;;1.50;1.15;;;5.10;99.90;;;;;;6199333;23;20091;-87
2021/01/28 12:43:38;;;;;;;1.35;0.90;;;5.30;99.90;;;;;;6198885;23;19996;-88
2021/01/28 12:46:04;;;;;;;3.30;0.77;;;5.30;99.90;;;;;;6200461;23;20100;-86
2021/01/28 12:48:30;;;;;;;3.35;1.10;;;5.40;99.90;;;;;;6226531;23;19996;-88
2021/01/28 12:50:55;;;;;;;1.80;1.15;;;5.50;99.90;;;;;;6235739;22;20007;-86
2021/01/28 12:53:21;;;;;;;1.77;1.08;;;5.50;99.90;;;;;;6228607;23;20012;-85
2021/01/28 12:55:47;;;;;;;0.65;0.65;;;5.50;99.90;;;;;;6224623;23;20135;-87
2021/01/28 12:58:14;;;;;;;2.10;0.80;;;5.50;99.90;;;;;;6225358;23;20012;-87
2021/01/28 13:00:40;;;;;;;3.63;1.17;;;5.60;99.90;;;;;;6223476;23;20028;-86
2021/01/28 13:03:05;;;;;;;1.75;0.73;;;5.70;99.90;;;;;;6223651;23;19996;-86
2021/01/28 13:05:31;;;;;;;2.88;0.63;;;5.60;99.90;;;;;;6224324;23;20024;-86
2021/01/28 13:07:57;;;;;;;0.47;0.47;;;5.60;99.90;;;;;;6224219;23;20047;-87
2021/01/28 13:10:26;;;;;;;2.45;0.50;;;5.60;99.90;;;;;;6197037;23;20095;-86
2021/01/28 13:12:52;;;;;;;0.85;0.68;;;5.60;99.90;;;;;;6199506;23;20039;-86
2021/01/28 13:15:21;;;;;;;1.98;0.88;;;5.50;99.90;;;;;;6225313;23;20000;-87
2021/01/28 13:17:48;;;;;;;0.98;0.60;;;5.60;99.90;;;;;;6196770;23;20001;-86
2021/01/28 13:20:14;;;;;;;2.65;1.52;;;5.70;99.90;;;;;;6226088;23;20005;-87
2021/01/28 13:22:41;;;;;;;1.17;0.50;;;5.80;99.90;;;;;;6225992;23;20503;-87
2021/01/28 13:25:12;;;;;;;1.08;0.93;;;5.90;99.90;;;;;;6199995;23;20245;-87
2021/01/28 13:27:41;;;;;;;1.73;1.00;;;5.80;99.90;;;;;;6198353;23;20059;-87
2021/01/28 13:30:09;;;;;;;1.65;1.30;;;5.80;99.90;;;;;;6226184;23;20016;-87
2021/01/28 13:32:36;;;;;;;1.85;0.85;;;5.90;99.90;;;;;;6221798;23;20443;-88
2021/01/28 13:35:02;;;;;;;4.72;3.42;;;5.90;99.90;;;;;;6228299;23;20313;-87
2021/01/28 13:37:30;;;;;;;2.55;1.27;;;5.90;99.90;;;;;;6201734;23;20109;-87
2021/01/28 13:39:56;;;;;;;1.73;1.42;;;5.90;99.90;;;;;;6228495;23;20042;-87
2021/01/28 13:42:21;;;;;;;1.10;0.50;;;5.90;99.90;;;;;;6224213;23;20072;-88
2021/01/28 13:44:47;;;;;;;1.15;0.68;;;6.00;99.90;;;;;;6223167;23;20001;-88
2021/01/28 13:47:13;;;;;;;1.15;0.65;;;6.00;99.90;;;;;;6221368;23;20040;-88
2021/01/28 13:49:38;;;;;;;4.57;2.85;;;6.00;99.90;;;;;;6221128;23;20008;-89
2021/01/28 13:52:04;;;;;;;2.38;1.15;;;6.10;99.90;;;;;;6201032;23;20000;-87
2021/01/28 13:54:31;;;;;;;3.35;0.85;;;6.20;99.90;;;;;;6228714;23;20067;-87
2021/01/28 13:56:56;;;;;;;2.15;0.75;;;6.20;99.90;;;;;;6200069;23;20005;-88
2021/01/28 13:59:22;;;;;;;1.77;0.55;;;6.30;99.90;;;;;;6201653;23;20420;-87
2021/01/28 14:01:48;;;;;;;0.63;0.52;;;6.20;99.90;;;;;;6200039;23;20012;-87
2021/01/28 14:04:14;;;;;;;2.28;1.33;;;6.10;99.90;;;;;;6227482;23;20015;-88
2021/01/28 14:06:40;;;;;;;1.95;1.48;;;6.10;99.90;;;;;;6201657;23;20004;-87
2021/01/28 14:09:09;;;;;;;1.98;0.63;;;6.20;99.90;;;;;;6201912;23;20005;-86
2021/01/28 14:11:35;;;;;;;0.93;0.35;;;6.20;99.90;;;;;;6227980;23;20049;-88
2021/01/28 14:14:00;;;;;;;1.63;0.40;;;6.10;99.90;;;;;;6231229;23;20027;-87
2021/01/28 14:16:26;;;;;;;3.03;1.00;;;6.20;99.90;;;;;;6231170;23;20023;-87
2021/01/28 14:18:52;;;;;;;2.55;0.45;;;6.20;99.90;;;;;;6230470;23;19996;-87
2021/01/28 14:21:18;;;;;;;0.70;0.50;;;6.10;99.90;;;;;;6229898;23;20012;-87
2021/01/28 14:23:43;;;;;;;0.75;0.50;;;6.20;99.90;;;;;;6226611;23;20005;-87
2021/01/28 14:26:09;;;;;;;1.35;0.60;;;6.20;99.90;;;;;;6228543;23;19997;-87
2021/01/28 14:28:35;;;;;;;1.58;0.35;;;6.20;99.90;;;;;;6229462;23;20015;-87
2021/01/28 14:31:00;;;;;;;1.23;0.60;;;6.10;99.90;;;;;;6201214;23;20008;-86
2021/01/28 14:33:26;;;;;;;0.73;0.40;;;6.10;99.90;;;;;;6226849;23;20044;-86
2021/01/28 14:35:53;;;;;;;1.65;0.35;;;6.10;99.90;;;;;;6201021;23;20064;-88
2021/01/28 14:38:20;;;;;;;0.75;0.30;;;6.10;99.90;;;;;;6227516;23;20054;-86
2021/01/28 14:40:47;;;;;;;1.15;0.60;;;6.10;99.90;;;;;;6226248;23;20096;-85
2021/01/28 14:43:13;;;;;;;1.27;0.80;;;6.00;99.90;;;;;;6228874;23;20012;-85
2021/01/28 14:45:39;;;;;;;0.55;0.55;;;6.10;99.90;;;;;;6228840;23;20024;-85
2021/01/28 14:48:06;;;;;;;1.17;0.50;;;6.10;99.90;;;;;;6227678;23;20004;-86
2021/01/28 14:50:32;;;;;;;1.08;0.52;;;6.10;99.90;;;;;;6222816;23;20001;-87
2021/01/28 14:52:58;;;;;;;0.95;0.45;;;6.10;99.90;;;;;;6223797;23;20023;-86
2021/01/28 14:55:24;;;;;;;0.50;0.50;;;6.10;99.90;;;;;;6198570;23;20020;-86
2021/01/28 14:57:49;;;;;;;2.38;1.25;;;6.20;99.90;;;;;;6226055;23;20348;-86
2021/01/28 15:00:16;;;;;;;0.40;0.40;;;6.10;99.90;;;;;;6226800;23;20440;-85
2021/01/28 15:02:42;;;;;;;0.40;0.32;;;6.10;99.90;;;;;;6227861;23;20005;-85
2021/01/28 15:05:10;;;;;;;0.88;0.73;;;6.10;99.90;;;;;;6230273;23;20066;-84
2021/01/28 15:07:36;;;;;;;1.73;0.70;;;6.10;99.90;;;;;;6228939;23;20000;-85
2021/01/28 15:10:03;;;;;;;0.80;0.80;;;6.20;99.90;;;;;;6228583;23;20007;-84
2021/01/28 15:12:29;;;;;;;0.85;0.60;;;6.10;99.90;;;;;;6230177;23;20099;-85
2021/01/28 15:14:54;;;;;;;1.88;0.57;;;6.20;99.90;;;;;;6226792;23;20468;-86
2021/01/28 15:17:20;;;;;;;1.25;0.50;;;6.20;99.90;;;;;;6222055;23;20004;-87
2021/01/28 15:19:45;;;;;;;2.10;0.40;;;6.30;99.90;;;;;;6198761;23;20011;-87
2021/01/28 15:22:11;;;;;;;0.77;0.50;;;6.30;99.90;;;;;;6196738;23;20009;-85
2021/01/28 15:24:37;;;;;;;2.25;0.70;;;6.30;99.90;;;;;;6226902;23;20001;-86
2021/01/28 15:27:03;;;;;;;2.72;0.85;;;6.40;99.90;;;;;;6229400;23;20005;-85
2021/01/28 15:29:29;;;;;;;1.83;0.60;;;6.40;99.90;;;;;;6201006;23;20015;-86
2021/01/28 15:31:54;;;;;;;1.17;0.75;;;6.40;99.90;;;;;;6197615;23;20004;-86
2021/01/28 15:34:20;;;;;;;2.88;0.80;;;6.50;99.90;;;;;;6224817;23;20063;-86
2021/01/28 15:36:46;;;;;;;1.40;0.70;;;6.50;99.90;;;;;;6225868;23;20051;-85
2021/01/28 15:39:12;;;;;;;0.85;0.85;;;6.60;99.90;;;;;;6224743;23;20058;-84
2021/01/28 15:41:37;;;;;;;0.73;0.68;;;6.60;99.90;;;;;;6227469;23;20012;-87
2021/01/28 15:44:03;;;;;;;1.10;0.52;;;6.70;99.90;;;;;;6228230;23;20028;-88
2021/01/28 15:46:30;;;;;;;1.85;0.35;;;6.70;99.90;;;;;;6200567;23;20028;-87
2021/01/28 15:48:55;;;;;;;0.95;0.50;;;6.70;99.90;;;;;;6227293;23;20076;-87
2021/01/28 15:51:21;;;;;;;0.50;0.50;;;6.70;99.90;;;;;;6229000;23;20011;-86
2021/01/28 15:53:47;;;;;;;0.80;0.30;;;6.70;99.90;;;;;;6203490;23;20066;-87
2021/01/28 15:56:12;;;;;;;3.45;1.85;;;6.80;99.90;;;;;;6225127;23;20573;-88
2021/01/28 15:58:39;;;;;;;1.65;0.55;;;6.70;99.90;;;;;;6226034;23;20024;-86
2021/01/28 16:01:06;;;;;;;2.13;0.52;;;6.80;99.90;;;;;;6225594;23;20031;-87
2021/01/28 16:03:32;;;;;;;2.85;1.83;;;6.80;99.90;;;;;;6226522;23;20336;-87
2021/01/28 16:05:59;;;;;;;2.00;1.10;;;6.80;99.90;;;;;;6226327;23;20000;-87
2021/01/28 16:08:26;;;;;;;2.28;0.60;;;6.90;99.90;;;;;;6199462;23;20016;-85
2021/01/28 16:10:52;;;;;;;1.33;0.77;;;6.90;99.90;;;;;;6227149;23;20048;-86
2021/01/28 16:13:19;;;;;;;2.60;0.73;;;6.90;99.90;;;;;;6236102;23;20007;-85